Time;durP1;ratioP1;P1;durP2;ratioP2;P2;SDS_P1;SDS_P2;PMS_P1;PMS_P2;Temp;Humidity;BMP_temperature;BMP_pressure;BME280_temperature;BME280_humidity;BME280_pressure;Samples;Min_cycle;Max_cycle;Signal;HPM_P1;HPM_P2
2023/03/06 00:00:25;;;;;;;6.60;2.80;;;;;;;-143.48;86.43;118439.88;5095878;28;20024;-73
2023/03/06 00:02:50;;;;;;;8.50;2.92;;;;;;;-143.48;86.52;118439.88;5077400;28;20028;-73
2023/03/06 00:05:16;;;;;;;4.55;2.67;;;;;;;-143.48;86.47;118439.88;5094164;28;20035;-73
2023/03/06 00:07:42;;;;;;;6.97;3.08;;;;;;;-143.48;86.48;118439.88;5077312;28;20032;-73
2023/03/06 00:10:12;;;;;;;5.95;3.20;;;;;;;-143.48;86.14;118439.88;5094100;28;20074;-73
2023/03/06 00:12:37;;;;;;;9.07;3.45;;;;;;;-143.48;86.19;118439.88;5095395;28;20081;-73
2023/03/06 00:15:03;;;;;;;4.53;2.70;;;;;;;-143.48;86.48;118439.88;5095501;28;20114;-73
2023/03/06 00:17:28;;;;;;;6.38;2.92;;;;;;;-143.48;86.70;118439.88;5094062;28;20458;-73
2023/03/06 00:19:53;;;;;;;7.88;3.17;;;;;;;-143.48;86.84;118439.88;5095745;28;20100;-72
2023/03/06 00:22:19;;;;;;;6.78;3.00;;;;;;;-143.48;86.41;118439.88;5077469;28;20035;-73
2023/03/06 00:24:44;;;;;;;7.78;2.80;;;;;;;-143.48;86.38;118439.88;5077706;28;20020;-73
2023/03/06 00:27:09;;;;;;;5.78;2.65;;;;;;;-143.48;86.55;118439.88;5077401;28;20119;-73
2023/03/06 00:29:35;;;;;;;4.80;2.65;;;;;;;-143.48;86.74;118439.88;5093672;28;20035;-73
2023/03/06 00:32:00;;;;;;;4.57;2.58;;;;;;;-143.48;87.18;118439.88;5077328;28;20024;-71
2023/03/06 00:34:26;;;;;;;5.15;2.70;;;;;;;-143.48;87.05;118439.88;5095431;28;20020;-73
2023/03/06 00:36:52;;;;;;;5.78;2.40;;;;;;;-143.48;86.95;118439.88;5094314;28;20028;-73
2023/03/06 00:39:17;;;;;;;3.55;2.03;;;;;;;-143.48;86.64;118439.88;5093492;28;20039;-73
2023/03/06 00:41:42;;;;;;;6.47;2.78;;;;;;;-143.48;86.65;118439.88;5094330;28;20027;-73
2023/03/06 00:44:08;;;;;;;9.95;2.45;;;;;;;-143.48;87.11;118439.88;5094771;28;20020;-73
2023/03/06 00:46:33;;;;;;;5.20;2.28;;;;;;;-143.48;86.97;118439.88;5093724;28;20020;-73
2023/03/06 00:48:59;;;;;;;4.30;2.10;;;;;;;-143.48;86.83;118439.88;5093943;28;20024;-72
2023/03/06 00:51:24;;;;;;;5.03;2.20;;;;;;;-143.48;86.93;118439.88;5093364;28;20026;-73
2023/03/06 00:53:49;;;;;;;6.32;2.42;;;;;;;-143.48;87.32;118439.88;5076385;28;20043;-73
2023/03/06 00:56:15;;;;;;;4.18;2.15;;;;;;;-143.48;86.73;118439.88;5093226;28;20119;-72
2023/03/06 00:58:40;;;;;;;5.55;2.35;;;;;;;-143.48;86.89;118439.88;5094382;28;20130;-73
2023/03/06 01:01:06;;;;;;;5.25;2.15;;;;;;;-143.48;86.53;118439.88;5094639;28;20458;-73
2023/03/06 01:03:31;;;;;;;4.80;2.00;;;;;;;-143.48;86.91;118439.88;5076244;28;20028;-73
2023/03/06 01:05:57;;;;;;;5.50;2.55;;;;;;;-143.48;86.32;118439.88;5076132;28;20051;-73
2023/03/06 01:08:22;;;;;;;5.05;2.35;;;;;;;-143.48;86.50;118439.88;5094451;28;20016;-73
2023/03/06 01:10:47;;;;;;;4.55;2.28;;;;;;;-143.48;86.15;118439.88;5092913;28;20027;-71
2023/03/06 01:13:13;;;;;;;4.68;2.30;;;;;;;-143.48;86.71;118439.88;5075951;28;20028;-71
2023/03/06 01:15:38;;;;;;;4.90;2.20;;;;;;;-143.48;87.07;118439.88;5094216;28;20016;-71
2023/03/06 01:18:04;;;;;;;6.65;2.33;;;;;;;-143.48;87.15;118439.88;5092815;28;20031;-71
2023/03/06 01:20:29;;;;;;;5.35;2.17;;;;;;;-143.48;86.50;118439.88;5092930;28;20402;-71
2023/03/06 01:22:55;;;;;;;6.65;2.78;;;;;;;-143.48;87.14;118439.88;5092761;28;20031;-72
2023/03/06 01:25:22;;;;;;;8.52;2.60;;;;;;;-143.48;87.54;118439.88;5092743;28;20016;-72
2023/03/06 01:27:47;;;;;;;4.88;2.53;;;;;;;-143.48;87.61;118439.88;5094355;28;20020;-73
2023/03/06 01:30:13;;;;;;;6.07;2.72;;;;;;;-143.48;87.56;118439.88;5075942;28;20023;-71
2023/03/06 01:32:38;;;;;;;6.07;2.90;;;;;;;-143.48;87.57;118439.88;5076091;28;20390;-71
2023/03/06 01:35:05;;;;;;;7.55;2.85;;;;;;;-143.48;88.12;118439.88;5093722;28;20035;-71
2023/03/06 01:37:30;;;;;;;4.95;2.80;;;;;;;-143.48;87.97;118439.88;5075883;28;20021;-71
2023/03/06 01:39:56;;;;;;;4.00;2.50;;;;;;;-143.48;88.48;118439.88;5092497;28;20115;-71
2023/03/06 01:42:21;;;;;;;5.05;2.70;;;;;;;-143.48;88.72;118439.88;5093649;28;20020;-73
2023/03/06 01:45:06;;;;;;;6.50;3.10;;;;;;;-143.48;88.38;118439.88;5075412;28;20032;-71
2023/03/06 01:47:31;;;;;;;5.20;2.80;;;;;;;-143.48;88.53;118439.88;5091639;28;20043;-73
2023/03/06 01:49:58;;;;;;;6.25;2.50;;;;;;;-143.48;88.94;118439.88;5075494;28;20023;-73
2023/03/06 01:52:31;;;;;;;6.15;3.20;;;;;;;-143.48;88.99;118439.88;5092514;28;20020;-71
2023/03/06 01:55:09;;;;;;;5.10;2.60;;;;;;;-143.48;89.24;118439.88;5093587;28;20386;-71
2023/03/06 01:57:40;;;;;;;6.25;2.70;;;;;;;-143.48;89.54;118439.88;5093171;28;20032;-72
2023/03/06 02:00:10;;;;;;;4.57;2.42;;;;;;;-143.48;89.17;118439.88;5093472;28;20459;-73
2023/03/06 02:02:36;;;;;;;4.03;2.58;;;;;;;-143.48;89.44;118439.88;5092084;28;20032;-72
2023/03/06 02:05:04;;;;;;;5.20;2.70;;;;;;;-143.48;89.06;118439.88;5092110;28;20023;-72
2023/03/06 02:07:30;;;;;;;7.15;2.58;;;;;;;-143.48;89.79;118439.88;5075155;28;20051;-72
2023/03/06 02:09:55;;;;;;;5.88;2.65;;;;;;;-143.48;90.15;118439.88;5092104;28;20496;-72
2023/03/06 02:12:22;;;;;;;7.93;3.55;;;;;;;-143.48;89.49;118439.88;5093232;28;20099;-72
2023/03/06 02:14:48;;;;;;;4.25;2.50;;;;;;;-143.48;89.78;118439.88;5075133;28;20483;-74
2023/03/06 02:17:17;;;;;;;4.43;3.00;;;;;;;-143.48;89.59;118439.88;5092950;28;20044;-72
2023/03/06 02:20:14;;;;;;;7.53;2.85;;;;;;;-143.48;89.66;118439.88;5091834;28;20496;-73
2023/03/06 02:22:49;;;;;;;6.95;2.42;;;;;;;-143.48;89.66;118439.88;5093119;28;20059;-73
2023/03/06 02:25:32;;;;;;;6.72;2.72;;;;;;;-143.48;89.60;118439.88;5091907;28;20111;-72
2023/03/06 02:27:57;;;;;;;6.80;2.70;;;;;;;-143.48;89.29;118439.88;5091765;28;20054;-70
2023/03/06 02:30:25;;;;;;;6.65;2.67;;;;;;;-143.48;89.31;118439.88;5092030;28;20102;-72
2023/03/06 02:32:51;;;;;;;7.10;2.30;;;;;;;-143.48;89.18;118439.88;5075022;28;20031;-72
2023/03/06 02:35:25;;;;;;;5.07;2.60;;;;;;;-143.48;89.06;118439.88;5091798;28;20028;-72
2023/03/06 02:37:52;;;;;;;5.85;2.40;;;;;;;-143.48;88.49;118439.88;5092890;28;20024;-72
2023/03/06 02:40:20;;;;;;;7.43;2.33;;;;;;;-143.48;88.55;118439.88;5092913;28;20027;-72
2023/03/06 02:42:48;;;;;;;7.18;2.30;;;;;;;-143.48;88.38;118439.88;5091689;28;20024;-72
2023/03/06 02:45:20;;;;;;;6.47;2.05;;;;;;;-143.48;88.30;118439.88;5093025;28;20048;-72
2023/03/06 02:47:45;;;;;;;4.72;2.13;;;;;;;-143.48;88.24;118439.88;5093096;28;20027;-72
2023/03/06 02:50:10;;;;;;;5.07;2.10;;;;;;;-143.48;87.86;118439.88;5074738;28;20456;-72
2023/03/06 02:52:36;;;;;;;5.28;1.90;;;;;;;-143.48;87.88;118439.88;5092817;28;20016;-73
2023/03/06 02:55:01;;;;;;;8.00;2.42;;;;;;;-143.48;87.69;118439.88;5091620;28;20424;-73
2023/03/06 02:57:27;;;;;;;3.08;1.52;;;;;;;-143.48;87.26;118439.88;5092571;28;20052;-72
2023/03/06 02:59:52;;;;;;;6.43;2.03;;;;;;;-143.48;87.22;118439.88;5077436;28;20081;-73
2023/03/06 03:02:17;;;;;;;6.20;1.92;;;;;;;-143.48;87.16;118439.88;5078353;28;20385;-73
2023/03/06 03:04:43;;;;;;;5.78;2.13;;;;;;;-143.48;87.52;118439.88;5095274;28;20028;-72
2023/03/06 03:07:08;;;;;;;6.43;1.98;;;;;;;-143.48;87.62;118439.88;5095290;28;20463;-73
2023/03/06 03:09:35;;;;;;;3.90;1.88;;;;;;;-143.48;87.68;118439.88;5096575;28;20107;-72
2023/03/06 03:12:03;;;;;;;5.57;2.20;;;;;;;-143.48;86.94;118439.88;5078307;28;20111;-72
2023/03/06 03:14:28;;;;;;;3.38;1.90;;;;;;;-143.48;86.87;118439.88;5096333;28;20028;-73
2023/03/06 03:16:54;;;;;;;7.22;2.00;;;;;;;-143.48;86.78;118439.88;5078089;28;20157;-72
2023/03/06 03:19:19;;;;;;;3.67;1.90;;;;;;;-143.48;86.92;118439.88;5096235;28;20036;-73
2023/03/06 03:21:44;;;;;;;4.97;1.95;;;;;;;-143.48;87.08;118439.88;5095074;28;20112;-73
2023/03/06 03:24:10;;;;;;;4.82;2.00;;;;;;;-143.48;86.71;118439.88;5078068;28;20496;-73
2023/03/06 03:26:35;;;;;;;2.78;1.80;;;;;;;-143.48;86.58;118439.88;5096093;28;20016;-73
2023/03/06 03:29:00;;;;;;;7.10;1.77;;;;;;;-143.48;86.51;118439.88;5077854;28;20036;-73
2023/03/06 03:31:26;;;;;;;5.22;1.92;;;;;;;-143.48;86.50;118439.88;5094738;28;20484;-72
2023/03/06 03:33:51;;;;;;;3.55;1.70;;;;;;;-143.48;86.52;118439.88;5094773;28;20020;-73
2023/03/06 03:36:17;;;;;;;4.57;1.90;;;;;;;-143.48;87.30;118439.88;5095970;28;20065;-72
2023/03/06 03:38:42;;;;;;;4.30;1.65;;;;;;;-143.48;87.56;118439.88;5077180;28;20027;-73
2023/03/06 03:41:07;;;;;;;3.17;1.55;;;;;;;-143.48;87.94;118439.88;5076716;28;20028;-72
2023/03/06 03:43:33;;;;;;;3.10;1.77;;;;;;;-143.48;88.05;118439.88;5095757;28;20032;-72
2023/03/06 03:45:58;;;;;;;6.22;1.63;;;;;;;-143.48;88.99;118439.88;5095690;28;20031;-72
2023/03/06 03:48:23;;;;;;;6.10;1.80;;;;;;;-143.48;89.18;118439.88;5095826;28;20363;-72
2023/03/06 03:50:49;;;;;;;4.60;1.83;;;;;;;-143.48;89.32;118439.88;5076733;28;20055;-72
2023/03/06 03:53:14;;;;;;;5.22;1.70;;;;;;;-143.48;89.47;118439.88;5075479;28;20024;-72
2023/03/06 03:55:39;;;;;;;5.18;1.90;;;;;;;-143.48;89.22;118439.88;5092371;28;20428;-72
2023/03/06 03:58:05;;;;;;;4.38;1.80;;;;;;;-143.48;89.50;118439.88;5092082;28;20043;-73
2023/03/06 04:00:30;;;;;;;3.85;2.13;;;;;;;-143.48;89.34;118439.88;5075637;28;20020;-73
2023/03/06 04:02:56;;;;;;;3.97;1.65;;;;;;;-143.48;89.36;118439.88;5092490;28;20024;-73
2023/03/06 04:05:21;;;;;;;6.63;2.15;;;;;;;-143.48;89.65;118439.88;5093952;28;20028;-72
2023/03/06 04:07:46;;;;;;;4.95;2.13;;;;;;;-143.48;90.06;118439.88;5095309;28;20069;-72
2023/03/06 04:10:12;;;;;;;4.10;2.20;;;;;;;-143.48;90.14;118439.88;5094434;28;20118;-73
2023/03/06 04:12:38;;;;;;;3.75;2.28;;;;;;;-143.48;90.01;118439.88;5077132;28;20066;-72
2023/03/06 04:15:05;;;;;;;7.25;2.45;;;;;;;-143.48;90.11;118439.88;5093911;28;20028;-72
2023/03/06 04:17:32;;;;;;;4.05;2.53;;;;;;;-143.48;89.86;118439.88;5095098;28;20028;-72
2023/03/06 04:19:59;;;;;;;4.63;2.50;;;;;;;-143.48;91.04;118439.88;5095133;28;20024;-72
2023/03/06 04:22:25;;;;;;;6.50;2.58;;;;;;;-143.48;91.03;118439.88;5095151;28;20030;-72
2023/03/06 04:24:50;;;;;;;4.75;2.72;;;;;;;-143.48;91.37;118439.88;5076922;28;20028;-72
2023/03/06 04:27:15;;;;;;;6.45;2.53;;;;;;;-143.48;91.38;118439.88;5076947;28;20016;-72
2023/03/06 04:29:41;;;;;;;4.55;2.65;;;;;;;-143.48;91.64;118439.88;5076854;28;20137;-72
2023/03/06 04:32:06;;;;;;;6.55;3.40;;;;;;;-143.48;92.00;118439.88;5093515;28;20052;-72
2023/03/06 04:34:32;;;;;;;7.60;2.85;;;;;;;-143.48;92.45;118439.88;5094960;28;20024;-73
2023/03/06 04:36:57;;;;;;;4.47;2.58;;;;;;;-143.48;92.56;118439.88;5094944;28;20031;-72
2023/03/06 04:39:22;;;;;;;10.75;2.53;;;;;;;-143.48;92.78;118439.88;5094834;28;20020;-72
2023/03/06 04:41:48;;;;;;;7.38;2.50;;;;;;;-143.48;92.89;118439.88;5093286;28;20024;-73
2023/03/06 04:44:13;;;;;;;6.95;2.33;;;;;;;-143.48;93.74;118439.88;5093448;28;20032;-71
2023/03/06 04:46:38;;;;;;;5.65;2.30;;;;;;;-143.48;93.84;118439.88;5076444;28;20031;-72
2023/03/06 04:49:04;;;;;;;4.00;2.22;;;;;;;-143.48;93.66;118439.88;5076445;28;20483;-72
2023/03/06 04:51:29;;;;;;;5.07;2.25;;;;;;;-143.48;93.27;118439.88;5094484;28;20027;-72
2023/03/06 04:53:55;;;;;;;4.55;2.50;;;;;;;-143.48;93.74;118439.88;5094448;28;20020;-72
2023/03/06 04:56:20;;;;;;;2.85;2.30;;;;;;;-143.48;93.66;118439.88;5076310;28;20436;-72
2023/03/06 04:58:45;;;;;;;9.13;2.55;;;;;;;-143.48;93.92;118439.88;5094275;28;20550;-72
2023/03/06 05:01:11;;;;;;;4.28;2.42;;;;;;;-143.48;94.14;118439.88;5092973;28;20059;-72
2023/03/06 05:03:37;;;;;;;4.35;2.40;;;;;;;-143.48;93.96;118439.88;5094239;28;20111;-72
2023/03/06 05:06:02;;;;;;;4.78;2.30;;;;;;;-143.48;93.92;118439.88;5094198;28;20070;-72
2023/03/06 05:08:28;;;;;;;6.22;2.38;;;;;;;-143.48;94.64;118439.88;5076137;28;20024;-72
2023/03/06 05:10:55;;;;;;;7.13;2.20;;;;;;;-143.48;94.43;118439.88;5076021;28;20111;-72
2023/03/06 05:13:21;;;;;;;4.47;2.15;;;;;;;-143.48;94.43;118439.88;5075889;28;20085;-72
2023/03/06 05:15:46;;;;;;;3.00;2.20;;;;;;;-143.48;94.39;118439.88;5075741;28;20028;-72
2023/03/06 05:18:11;;;;;;;3.80;2.40;;;;;;;-143.48;94.28;118439.88;5094017;28;20028;-72
2023/03/06 05:20:37;;;;;;;5.47;2.20;;;;;;;-143.48;94.18;118439.88;5092820;28;20483;-72
2023/03/06 05:23:02;;;;;;;8.02;3.08;;;;;;;-143.48;94.28;118439.88;5092590;28;20382;-72
2023/03/06 05:25:27;;;;;;;6.32;2.40;;;;;;;-143.48;94.12;118439.88;5092584;28;20081;-72
2023/03/06 05:27:53;;;;;;;3.75;2.20;;;;;;;-143.48;93.97;118439.88;5092597;28;20020;-72
2023/03/06 05:30:20;;;;;;;3.70;2.00;;;;;;;-143.48;93.66;118439.88;5092570;28;20387;-72
2023/03/06 05:32:45;;;;;;;9.00;2.22;;;;;;;-143.48;93.48;118439.88;5075636;28;20119;-72
2023/03/06 05:35:17;;;;;;;4.70;1.50;;;;;;;-143.48;93.53;118439.88;5093740;28;20051;-72
2023/03/06 05:37:42;;;;;;;3.20;1.50;;;;;;;-143.48;92.85;118439.88;5092322;28;20130;-72
2023/03/06 05:40:13;;;;;;;3.78;1.50;;;;;;;-143.48;92.47;118439.88;5095049;28;20033;-82
2023/03/06 05:42:42;;;;;;;2.13;1.33;;;;;;;-143.48;91.89;118439.88;5101212;28;20027;-82
2023/03/06 05:45:08;;;;;;;2.83;1.40;;;;;;;-143.48;92.28;118439.88;5096108;28;20077;-81
2023/03/06 05:47:35;;;;;;;2.72;1.10;;;;;;;-143.48;92.71;118439.88;5097549;28;20020;-81
2023/03/06 05:50:03;;;;;;;9.00;1.40;;;;;;;-143.48;92.90;118439.88;5097840;28;20017;-74
2023/03/06 05:52:32;;;;;;;6.43;1.02;;;;;;;-143.48;92.38;118439.88;5076024;28;20024;-73
2023/03/06 05:54:58;;;;;;;2.65;1.08;;;;;;;-143.48;92.23;118439.88;5094196;28;20107;-73
2023/03/06 05:57:23;;;;;;;3.13;0.95;;;;;;;-143.48;91.49;118439.88;5091555;28;20140;-74
2023/03/06 05:59:49;;;;;;;2.95;0.90;;;;;;;-143.48;91.79;118439.88;5092841;28;20028;-74
2023/03/06 06:02:16;;;;;;;3.35;1.10;;;;;;;-143.48;91.84;118439.88;5091746;28;20020;-73
2023/03/06 06:04:42;;;;;;;3.03;0.93;;;;;;;-143.48;92.00;118439.88;5092509;28;20020;-74
2023/03/06 06:07:13;;;;;;;4.80;1.02;;;;;;;-143.48;92.00;118439.88;5093263;28;20144;-73
2023/03/06 06:09:38;;;;;;;3.03;1.15;;;;;;;-143.48;91.54;118439.88;5091887;28;20050;-73
2023/03/06 06:12:05;;;;;;;2.53;0.75;;;;;;;-143.48;91.72;118439.88;5093246;28;20016;-73
2023/03/06 06:14:33;;;;;;;2.38;0.85;;;;;;;-143.48;92.24;118439.88;5093167;28;20031;-73
2023/03/06 06:16:59;;;;;;;5.88;1.00;;;;;;;-143.48;92.03;118439.88;5093175;28;20024;-73
2023/03/06 06:19:27;;;;;;;6.20;0.98;;;;;;;-143.48;91.94;118439.88;5075099;28;20391;-73
2023/03/06 06:21:53;;;;;;;2.83;1.17;;;;;;;-143.48;91.89;118439.88;5092052;28;20031;-73
2023/03/06 06:24:21;;;;;;;2.88;0.93;;;;;;;-143.48;91.31;118439.88;5093475;28;20024;-73
2023/03/06 06:26:55;;;;;;;3.30;1.30;;;;;;;-143.48;91.81;118439.88;5074901;28;20064;-73
2023/03/06 06:29:20;;;;;;;2.15;1.30;;;;;;;-143.48;91.38;118439.88;5075096;28;20032;-74
2023/03/06 06:31:46;;;;;;;3.47;1.10;;;;;;;-143.48;91.49;118439.88;5091598;28;20383;-73
2023/03/06 06:34:12;;;;;;;3.60;1.10;;;;;;;-143.48;91.97;118439.88;5095301;28;20501;-73
2023/03/06 06:36:39;;;;;;;3.13;1.20;;;;;;;-143.48;91.23;118439.88;5078861;28;20024;-74
2023/03/06 06:39:05;;;;;;;3.10;1.27;;;;;;;-143.48;91.17;118439.88;5078901;28;20023;-74
2023/03/06 06:41:31;;;;;;;3.65;1.23;;;;;;;-143.48;90.87;118439.88;5097085;28;20034;-73
2023/03/06 06:43:56;;;;;;;2.88;1.45;;;;;;;-143.48;90.80;118439.88;5097002;28;20472;-74
2023/03/06 06:46:22;;;;;;;2.85;1.30;;;;;;;-143.48;91.25;118439.88;5095572;28;20457;-73
2023/03/06 06:48:53;;;;;;;4.85;1.48;;;;;;;-143.48;91.27;118439.88;5078761;28;20106;-74
2023/03/06 06:51:20;;;;;;;1.98;1.20;;;;;;;-143.48;91.66;118439.88;5096071;28;20458;-73
2023/03/06 06:53:45;;;;;;;5.60;1.50;;;;;;;-143.48;91.42;118439.88;5095423;28;20470;-73
2023/03/06 06:56:10;;;;;;;2.50;1.38;;;;;;;-143.48;91.23;118439.88;5096774;28;20039;-74
2023/03/06 06:58:36;;;;;;;5.88;1.70;;;;;;;-143.48;91.21;118439.88;5078327;28;20047;-73
2023/03/06 07:01:07;;;;;;;2.58;1.30;;;;;;;-143.48;90.77;118439.88;5078396;28;20037;-74
2023/03/06 07:03:32;;;;;;;2.95;1.20;;;;;;;-143.48;90.79;118439.88;5096526;28;20027;-73
2023/03/06 07:05:57;;;;;;;2.15;1.42;;;;;;;-143.48;90.29;118439.88;5078297;28;20031;-74
2023/03/06 07:08:23;;;;;;;3.55;1.55;;;;;;;-143.48;90.29;118439.88;5078240;28;20024;-74
2023/03/06 07:10:48;;;;;;;3.42;1.70;;;;;;;-143.48;90.45;118439.88;5095176;28;20114;-74
2023/03/06 07:13:13;;;;;;;6.25;1.67;;;;;;;-143.48;89.23;118439.88;5095118;28;20542;-74
2023/03/06 07:15:38;;;;;;;2.00;1.33;;;;;;;-143.48;88.55;118439.88;5078131;28;20085;-72
2023/03/06 07:18:04;;;;;;;4.40;1.40;;;;;;;-143.48;88.84;118439.88;5094971;28;20077;-74
2023/03/06 07:20:30;;;;;;;3.67;1.48;;;;;;;-143.48;88.82;118439.88;5094980;28;20031;-73
2023/03/06 07:22:56;;;;;;;2.65;1.27;;;;;;;-143.48;88.04;118439.88;5093806;28;20028;-74
2023/03/06 07:25:21;;;;;;;1.58;1.15;;;;;;;-143.48;87.33;118439.88;5077554;28;20020;-74
2023/03/06 07:27:49;;;;;;;4.57;1.50;;;;;;;-143.48;86.35;118439.88;5095333;28;20012;-73
2023/03/06 07:30:15;;;;;;;3.67;1.60;;;;;;;-143.48;86.29;118439.88;5094520;28;20114;-74
2023/03/06 07:32:46;;;;;;;3.05;1.40;;;;;;;-143.48;85.78;118439.88;5096516;28;20047;-74
2023/03/06 07:35:15;;;;;;;3.15;1.38;;;;;;;-143.48;84.87;118439.88;5078659;28;20412;-74
2023/03/06 07:37:42;;;;;;;2.22;1.00;;;;;;;-143.48;84.38;118439.88;5096910;28;20024;-74
2023/03/06 07:40:11;;;;;;;2.38;1.10;;;;;;;-143.48;82.93;118439.88;5095976;28;20371;-74
2023/03/06 07:42:36;;;;;;;2.40;0.80;;;;;;;-143.48;82.11;118439.88;5095845;28;20421;-75
2023/03/06 07:45:03;;;;;;;5.22;1.20;;;;;;;-143.48;79.70;118439.88;5094551;28;20028;-75
2023/03/06 07:47:28;;;;;;;2.17;1.05;;;;;;;-143.48;77.43;118439.88;5095458;28;20077;-73
2023/03/06 07:49:55;;;;;;;1.45;1.00;;;;;;;-143.48;72.16;118439.88;5095864;28;20020;-73
2023/03/06 07:52:21;;;;;;;1.20;0.90;;;;;;;-143.48;73.17;118439.88;5094293;28;20035;-73
2023/03/06 07:54:48;;;;;;;1.90;0.90;;;;;;;-143.48;73.45;118439.88;5094473;28;20027;-73
2023/03/06 07:57:13;;;;;;;4.13;0.98;;;;;;;-143.48;75.24;118439.88;5095354;28;20048;-74
2023/03/06 07:59:39;;;;;;;2.75;1.00;;;;;;;-143.48;75.85;118439.88;5077227;28;20035;-74
2023/03/06 08:02:04;;;;;;;2.58;1.20;;;;;;;-143.48;76.39;118439.88;5077247;28;20024;-74
2023/03/06 08:04:30;;;;;;;3.03;1.40;;;;;;;-143.48;78.25;118439.88;5095790;28;20020;-74
2023/03/06 08:06:58;;;;;;;1.23;0.98;;;;;;;-143.48;76.33;118439.88;5095389;28;20068;-74
2023/03/06 08:09:23;;;;;;;2.00;1.20;;;;;;;-143.48;73.98;118439.88;5094110;28;20051;-74
2023/03/06 08:11:49;;;;;;;1.58;1.20;;;;;;;-143.48;70.12;118439.88;5094041;28;20120;-74
2023/03/06 08:14:14;;;;;;;2.42;1.10;;;;;;;-143.48;67.31;118439.88;5094517;28;20024;-74
2023/03/06 08:16:40;;;;;;;2.03;0.73;;;;;;;-143.48;64.86;118439.88;5076648;28;20023;-75
2023/03/06 08:19:05;;;;;;;4.07;0.88;;;;;;;-143.48;65.82;118439.88;5092815;28;20032;-75
2023/03/06 08:21:31;;;;;;;1.77;1.00;;;;;;;-143.48;63.78;118439.88;5092085;28;20382;-75
2023/03/06 08:23:56;;;;;;;4.30;1.08;;;;;;;-143.48;62.84;118439.88;5093225;28;20024;-74
2023/03/06 08:26:24;;;;;;;2.35;0.98;;;;;;;-143.48;62.93;118439.88;5091865;28;20024;-74
2023/03/06 08:28:51;;;;;;;3.38;1.10;;;;;;;-143.48;61.93;118439.88;5058389;28;20508;-75
2023/03/06 08:31:36;;;;;;;1.50;0.73;;;;;;;-143.48;59.44;118439.88;5075310;28;20364;-75
2023/03/06 08:34:04;;;;;;;2.28;1.10;;;;;;;-143.48;58.23;118439.88;5093479;28;20394;-74
2023/03/06 08:36:30;;;;;;;3.25;1.08;;;;;;;-143.48;56.59;118439.88;5094923;28;20111;-75
2023/03/06 08:38:55;;;;;;;2.08;0.90;;;;;;;-143.48;56.44;118439.88;5094811;28;20027;-74
2023/03/06 08:41:21;;;;;;;1.38;0.50;;;;;;;-143.48;53.77;118439.88;5076485;28;20114;-75
2023/03/06 08:43:48;;;;;;;4.45;1.17;;;;;;;-143.48;50.93;118439.88;5076413;28;20027;-75
2023/03/06 08:46:13;;;;;;;3.05;0.98;;;;;;;-143.48;51.11;118439.88;5076171;28;20114;-75
2023/03/06 08:48:39;;;;;;;1.65;0.60;;;;;;;-143.48;49.07;118439.88;5076453;28;20058;-75
2023/03/06 08:51:04;;;;;;;2.15;0.80;;;;;;;-143.48;49.74;118439.88;5076384;28;20020;-75
2023/03/06 08:53:30;;;;;;;3.22;1.02;;;;;;;-143.48;53.58;118439.88;5093013;28;20466;-75
2023/03/06 08:55:55;;;;;;;2.03;0.90;;;;;;;-143.48;53.31;118439.88;5093108;28;20043;-75
2023/03/06 08:58:21;;;;;;;2.80;0.93;;;;;;;-143.48;52.88;118439.88;5092749;28;20044;-74
2023/03/06 09:00:46;;;;;;;2.00;0.82;;;;;;;-143.48;51.25;118439.88;5092990;28;20476;-75
2023/03/06 09:03:12;;;;;;;1.20;0.90;;;;;;;-143.48;52.20;118439.88;5076290;28;20020;-75
2023/03/06 09:05:39;;;;;;;1.10;0.80;;;;;;;-143.48;49.29;118439.88;5094159;28;20024;-75
2023/03/06 09:08:04;;;;;;;4.45;0.88;;;;;;;-143.48;48.72;118439.88;5076046;28;20126;-75
2023/03/06 09:10:30;;;;;;;3.05;0.95;;;;;;;-143.48;47.00;118439.88;5092929;28;20497;-75
2023/03/06 09:12:55;;;;;;;2.50;1.20;;;;;;;-143.48;47.26;118439.88;5093279;28;20027;-75
2023/03/06 09:15:22;;;;;;;3.33;0.95;;;;;;;-143.48;45.40;118439.88;5092842;28;20016;-75
2023/03/06 09:17:47;;;;;;;1.05;0.57;;;;;;;-143.48;47.80;118439.88;5059107;28;20054;-75
2023/03/06 09:20:13;;;;;;;2.30;0.80;;;;;;;-143.48;52.76;118439.88;5093992;28;20106;-75
2023/03/06 09:22:41;;;;;;;3.90;1.08;;;;;;;-143.48;55.27;118439.88;5094314;28;20470;-75
2023/03/06 09:25:08;;;;;;;2.22;1.00;;;;;;;-143.48;55.04;118439.88;5093920;28;20027;-75
2023/03/06 09:27:33;;;;;;;1.83;0.77;;;;;;;-143.48;47.41;118439.88;5093781;28;20479;-75
2023/03/06 09:29:58;;;;;;;2.10;0.90;;;;;;;-143.48;43.93;118439.88;5093782;28;20027;-75
2023/03/06 09:32:24;;;;;;;4.18;0.70;;;;;;;-143.48;38.76;118439.88;5093934;28;20034;-75
2023/03/06 09:34:49;;;;;;;1.30;0.68;;;;;;;-143.48;40.74;118439.88;5093047;28;20023;-76
2023/03/06 09:37:16;;;;;;;1.58;0.60;;;;;;;-143.48;38.05;118439.88;5093728;28;20035;-76
2023/03/06 09:39:42;;;;;;;1.95;0.50;;;;;;;-143.48;36.68;118439.88;5075769;28;20498;-76
2023/03/06 09:42:13;;;;;;;1.33;0.60;;;;;;;-143.48;37.94;118439.88;5092442;28;20055;-76
2023/03/06 09:44:40;;;;;;;2.50;0.70;;;;;;;-143.48;38.36;118439.88;5094001;28;20039;-76
2023/03/06 09:47:37;;;;;;;1.83;0.77;;;;;;;-143.48;36.87;118439.88;5092292;28;20486;-76
2023/03/06 09:50:24;;;;;;;1.15;0.55;;;;;;;-143.48;37.86;118439.88;5073978;28;20500;-76
2023/03/06 09:53:14;;;;;;;3.47;0.60;;;;;;;-143.48;38.43;118439.88;5074009;28;20394;-77
2023/03/06 09:55:40;;;;;;;1.90;0.70;;;;;;;-143.48;39.37;118439.88;5073948;28;20487;-76
2023/03/06 09:58:24;;;;;;;2.78;0.80;;;;;;;-143.48;40.19;118439.88;5091785;28;20075;-76
2023/03/06 10:00:56;;;;;;;1.60;0.50;;;;;;;-143.48;39.81;118439.88;5090495;28;20055;-76
2023/03/06 10:03:33;;;;;;;3.35;0.80;;;;;;;-143.48;39.78;118439.88;5091008;28;20028;-76
2023/03/06 10:06:12;;;;;;;4.38;0.60;;;;;;;-143.48;37.83;118439.88;5093388;28;20417;-75
2023/03/06 10:08:57;;;;;;;1.40;0.38;;;;;;;-143.48;38.23;118439.88;5092721;28;20109;-75
2023/03/06 10:11:46;;;;;;;2.97;0.50;;;;;;;-143.48;40.82;118439.88;5091868;28;20163;-76
2023/03/06 10:14:28;;;;;;;1.65;0.63;;;;;;;-143.48;41.08;118439.88;5075023;28;20020;-75
2023/03/06 10:16:55;;;;;;;2.97;0.50;;;;;;;-143.48;41.12;118439.88;5094253;28;20450;-76
2023/03/06 10:19:21;;;;;;;1.85;0.50;;;;;;;-143.48;39.01;118439.88;5075985;28;20024;-76
2023/03/06 10:22:13;;;;;;;4.10;0.70;;;;;;;-143.48;39.01;118439.88;5091959;28;20028;-76
2023/03/06 10:25:16;;;;;;;2.38;0.60;;;;;;;-143.48;38.34;118439.88;5093627;28;20498;-76
2023/03/06 10:27:49;;;;;;;1.75;0.73;;;;;;;-143.48;38.70;118439.88;5093379;28;20025;-76
2023/03/06 10:30:36;;;;;;;1.48;0.57;;;;;;;-143.48;37.30;118439.88;5091978;28;20114;-76
2023/03/06 10:33:21;;;;;;;2.17;1.05;;;;;;;-143.48;39.01;118439.88;5093558;28;20024;-75
2023/03/06 10:35:48;;;;;;;1.27;0.47;;;;;;;-143.48;41.17;118439.88;5092600;28;20024;-76
2023/03/06 10:38:37;;;;;;;8.82;1.00;;;;;;;-143.48;40.78;118439.88;5091815;28;20088;-76
2023/03/06 10:41:05;;;;;;;3.60;0.60;;;;;;;-143.48;41.65;118439.88;5075547;28;20051;-75
2023/03/06 10:43:32;;;;;;;3.03;0.80;;;;;;;-143.48;42.16;118439.88;5075408;28;20032;-76
2023/03/06 10:45:57;;;;;;;1.67;0.85;;;;;;;-143.48;41.25;118439.88;5091681;28;20024;-76
2023/03/06 10:48:26;;;;;;;3.33;1.10;;;;;;;-143.48;41.06;118439.88;5091862;28;20024;-76
2023/03/06 10:51:07;;;;;;;1.27;0.85;;;;;;;-143.48;41.62;118439.88;5091718;28;20024;-75
2023/03/06 10:53:33;;;;;;;2.35;0.80;;;;;;;-143.48;42.51;118439.88;5091621;28;20020;-75
2023/03/06 10:55:59;;;;;;;2.00;0.95;;;;;;;-143.48;41.98;118439.88;5093394;28;20024;-75
2023/03/06 10:58:29;;;;;;;3.22;0.90;;;;;;;-143.48;42.69;118439.88;5092787;28;20089;-75
2023/03/06 11:01:06;;;;;;;3.53;0.90;;;;;;;-143.48;43.05;118439.88;5091593;28;20042;-75
2023/03/06 11:03:33;;;;;;;4.85;0.90;;;;;;;-143.48;44.15;118439.88;5091924;28;20023;-75
2023/03/06 11:06:09;;;;;;;3.38;1.13;;;;;;;-143.48;43.49;118439.88;5092708;28;20030;-76
2023/03/06 11:08:35;;;;;;;6.40;1.20;;;;;;;-143.48;43.20;118439.88;5091771;28;20020;-75
2023/03/06 11:11:03;;;;;;;2.53;1.10;;;;;;;-143.48;44.61;118439.88;5075028;28;20035;-75